Time;durP1;ratioP1;P1;durP2;ratioP2;P2;SDS_P1;SDS_P2;PMS_P1;PMS_P2;Temp;Humidity;BMP_temperature;BMP_pressure;BME280_temperature;BME280_humidity;BME280_pressure;Samples;Min_cycle;Max_cycle;Signal;HPM_P1;HPM_P2
2022/05/31 00:01:24;;;;;;;10.80;6.20;;;11.80;29.90;;;;;;5041628;28;20427;-81
2022/05/31 00:03:50;;;;;;;14.30;6.75;;;11.80;30.40;;;;;;5042994;28;20422;-80
2022/05/31 00:06:16;;;;;;;9.40;6.10;;;11.80;30.50;;;;;;5035899;28;20422;-82
2022/05/31 00:08:41;;;;;;;9.07;5.57;;;11.90;30.20;;;;;;5036532;28;20405;-80
2022/05/31 00:11:07;;;;;;;7.70;5.95;;;11.90;29.50;;;;;;5044065;28;20968;-82
2022/05/31 00:13:33;;;;;;;8.68;5.50;;;11.90;29.50;;;;;;5032307;28;20477;-81
2022/05/31 00:15:59;;;;;;;15.17;5.80;;;12.10;29.30;;;;;;5032400;28;20401;-80
2022/05/31 00:18:24;;;;;;;10.63;5.70;;;12.10;28.40;;;;;;5034856;28;20406;-80
2022/05/31 00:20:50;;;;;;;12.43;6.17;;;12.10;28.80;;;;;;5031759;28;20385;-79
2022/05/31 00:23:17;;;;;;;9.38;6.05;;;12.10;29.30;;;;;;5026380;28;20381;-79
2022/05/31 00:25:42;;;;;;;11.38;6.35;;;12.10;28.80;;;;;;5040622;28;20387;-79
2022/05/31 00:28:08;;;;;;;10.50;6.27;;;12.00;29.00;;;;;;5051770;28;20403;-79
2022/05/31 00:30:34;;;;;;;10.57;6.70;;;12.00;29.00;;;;;;5043170;28;20841;-79
2022/05/31 00:33:01;;;;;;;11.00;5.77;;;12.10;29.40;;;;;;5050100;28;20415;-80
2022/05/31 00:35:30;;;;;;;9.43;5.75;;;12.10;28.30;;;;;;5041521;28;20505;-79
2022/05/31 00:37:57;;;;;;;11.57;5.37;;;12.10;29.20;;;;;;5039782;28;20381;-80
2022/05/31 00:40:25;;;;;;;10.00;5.80;;;12.10;29.00;;;;;;5036148;28;20375;-79
2022/05/31 00:43:03;;;;;;;13.60;6.32;;;12.10;28.80;;;;;;5020997;28;20516;-80
2022/05/31 00:45:47;;;;;;;7.47;5.00;;;12.10;29.10;;;;;;5020994;28;20388;-80
2022/05/31 00:48:26;;;;;;;11.93;6.30;;;12.00;28.50;;;;;;5037036;28;20775;-77
2022/05/31 00:50:56;;;;;;;11.35;6.10;;;12.00;28.90;;;;;;5026773;28;20377;-80
2022/05/31 00:53:28;;;;;;;8.40;5.60;;;11.90;29.40;;;;;;5029092;28;20473;-79
2022/05/31 00:55:58;;;;;;;10.73;5.97;;;11.90;29.50;;;;;;5040532;28;20458;-80
2022/05/31 00:58:34;;;;;;;10.10;6.47;;;12.00;29.60;;;;;;5044477;28;20394;-82
2022/05/31 01:01:08;;;;;;;8.50;5.78;;;11.90;29.60;;;;;;5044653;28;20467;-80
2022/05/31 01:03:38;;;;;;;11.80;5.80;;;11.90;29.90;;;;;;5036054;28;20391;-80
2022/05/31 01:06:04;;;;;;;10.33;6.53;;;11.90;30.30;;;;;;5046656;28;20414;-80
2022/05/31 01:08:30;;;;;;;11.35;6.00;;;11.90;30.10;;;;;;5041863;28;20379;-81
2022/05/31 01:10:55;;;;;;;8.57;5.32;;;11.90;30.20;;;;;;5034653;28;20478;-79
2022/05/31 01:13:22;;;;;;;11.27;5.38;;;11.90;30.20;;;;;;5030709;28;20426;-83
2022/05/31 01:15:50;;;;;;;10.32;5.70;;;11.90;30.70;;;;;;5045118;28;20383;-81
2022/05/31 01:18:16;;;;;;;10.35;6.50;;;11.90;31.50;;;;;;5034513;28;20414;-81
2022/05/31 01:20:42;;;;;;;7.33;5.13;;;11.80;31.30;;;;;;5034563;28;20382;-81
2022/05/31 01:23:17;;;;;;;10.32;5.50;;;11.80;31.50;;;;;;5024241;28;20401;-81
2022/05/31 01:26:18;;;;;;;8.38;5.63;;;11.70;32.00;;;;;;5035601;28;20817;-84
2022/05/31 01:29:08;;;;;;;8.18;5.97;;;11.60;32.30;;;;;;5043664;28;20406;-81
2022/05/31 01:31:42;;;;;;;11.00;5.57;;;11.50;32.60;;;;;;5039658;28;20857;-80
2022/05/31 01:34:49;;;;;;;7.65;5.28;;;11.50;33.50;;;;;;5029461;28;20392;-80
2022/05/31 01:37:15;;;;;;;8.40;5.20;;;11.50;34.20;;;;;;5036314;28;20414;-81
2022/05/31 01:39:50;;;;;;;13.07;6.93;;;11.50;33.90;;;;;;5045792;28;20408;-80
2022/05/31 01:42:37;;;;;;;8.63;5.45;;;11.50;33.30;;;;;;5045869;28;20387;-80
2022/05/31 01:45:09;;;;;;;9.77;5.70;;;11.50;33.40;;;;;;5039762;28;20393;-80
2022/05/31 01:47:36;;;;;;;10.00;5.25;;;11.50;33.30;;;;;;5037511;23;20452;-79
2022/05/31 01:50:08;;;;;;;8.02;5.40;;;11.50;33.30;;;;;;5018040;28;20387;-78
2022/05/31 01:52:34;;;;;;;9.40;5.32;;;11.50;33.30;;;;;;5019220;28;20897;-78
2022/05/31 01:55:00;;;;;;;8.27;5.40;;;11.60;33.30;;;;;;5025841;28;20424;-77
2022/05/31 01:57:27;;;;;;;11.95;5.00;;;11.50;33.40;;;;;;5031523;28;20388;-76
2022/05/31 02:00:00;;;;;;;7.75;4.97;;;11.50;33.00;;;;;;5028022;28;20420;-79
2022/05/31 02:02:26;;;;;;;8.80;5.32;;;11.60;33.00;;;;;;5027565;28;20432;-78
2022/05/31 02:04:52;;;;;;;9.10;5.57;;;11.60;32.30;;;;;;5020324;28;20867;-82
2022/05/31 02:07:21;;;;;;;6.93;5.20;;;11.60;32.40;;;;;;5014960;28;20404;-81
2022/05/31 02:09:48;;;;;;;7.32;5.07;;;11.60;32.50;;;;;;5017679;28;20760;-83
2022/05/31 02:12:15;;;;;;;11.50;5.32;;;11.60;32.70;;;;;;5016692;28;20417;-80
2022/05/31 02:14:42;;;;;;;10.02;5.45;;;11.60;32.90;;;;;;5017488;28;20381;-81
2022/05/31 02:17:08;;;;;;;8.75;5.70;;;11.60;32.80;;;;;;5017975;28;20819;-81
2022/05/31 02:19:34;;;;;;;6.97;4.70;;;11.60;32.60;;;;;;5016422;28;20412;-82
2022/05/31 02:22:03;;;;;;;8.57;4.90;;;11.60;32.80;;;;;;5016212;28;20401;-81
2022/05/31 02:24:28;;;;;;;8.90;5.00;;;11.60;32.50;;;;;;5014581;28;20397;-82
2022/05/31 02:26:55;;;;;;;9.67;5.53;;;11.70;32.30;;;;;;5018527;28;20391;-82
2022/05/31 02:29:25;;;;;;;9.00;4.93;;;11.70;32.50;;;;;;5017429;28;20395;-80
2022/05/31 02:31:51;;;;;;;10.32;5.00;;;11.70;32.70;;;;;;5016913;28;20408;-80
2022/05/31 02:34:22;;;;;;;10.05;5.43;;;11.70;33.00;;;;;;5029543;28;20384;-76
2022/05/31 02:36:49;;;;;;;11.52;5.75;;;11.70;33.00;;;;;;5034591;28;20373;-81
2022/05/31 02:39:15;;;;;;;10.00;5.97;;;11.70;33.40;;;;;;5031494;28;20400;-80
2022/05/31 02:41:41;;;;;;;5.45;4.70;;;11.70;33.00;;;;;;5029901;28;20485;-79
2022/05/31 02:44:07;;;;;;;10.93;5.30;;;11.70;33.10;;;;;;5033025;28;20397;-78
2022/05/31 02:46:33;;;;;;;9.05;4.70;;;11.70;32.90;;;;;;5032487;28;20401;-80
2022/05/31 02:49:00;;;;;;;12.80;5.30;;;11.60;33.30;;;;;;5032853;28;20412;-77
2022/05/31 02:51:27;;;;;;;8.30;4.80;;;11.60;33.10;;;;;;5026474;28;20417;-82
2022/05/31 02:53:53;;;;;;;11.38;5.22;;;11.60;33.50;;;;;;5023308;28;20384;-79
2022/05/31 02:56:19;;;;;;;10.48;4.80;;;11.50;33.80;;;;;;5027966;28;20388;-76
2022/05/31 02:58:44;;;;;;;7.30;4.63;;;11.50;33.90;;;;;;5031422;28;20395;-76
2022/05/31 03:01:23;;;;;;;10.37;5.40;;;11.60;33.70;;;;;;5025845;28;20801;-79
2022/05/31 03:03:49;;;;;;;7.53;4.78;;;11.70;34.40;;;;;;5022990;28;20458;-77
2022/05/31 03:06:14;;;;;;;12.68;5.25;;;11.80;34.60;;;;;;5025879;28;20385;-80
2022/05/31 03:08:41;;;;;;;10.23;5.20;;;11.80;33.30;;;;;;5021857;28;20778;-81
2022/05/31 03:11:11;;;;;;;6.40;4.72;;;11.80;33.30;;;;;;5013614;28;20385;-81
2022/05/31 03:13:37;;;;;;;10.45;5.47;;;11.90;33.40;;;;;;5022291;28;20416;-81
2022/05/31 03:16:04;;;;;;;10.23;5.22;;;11.80;33.40;;;;;;5021907;28;20757;-80
2022/05/31 03:18:36;;;;;;;11.68;4.70;;;11.80;33.30;;;;;;5019382;28;20447;-80
2022/05/31 03:21:10;;;;;;;10.00;5.05;;;11.80;33.50;;;;;;5021601;28;20521;-80
2022/05/31 03:23:43;;;;;;;7.18;5.20;;;11.90;33.60;;;;;;5022109;28;20389;-82
2022/05/31 03:26:12;;;;;;;9.45;5.15;;;11.90;34.20;;;;;;5036943;28;20384;-80
2022/05/31 03:28:38;;;;;;;11.60;5.60;;;12.00;34.00;;;;;;5038196;28;20872;-81
2022/05/31 03:31:04;;;;;;;7.70;5.03;;;11.90;34.00;;;;;;5014850;28;20396;-79
2022/05/31 03:33:31;;;;;;;10.27;5.47;;;11.80;33.80;;;;;;5019732;28;20440;-81
2022/05/31 03:35:57;;;;;;;11.25;5.25;;;11.90;34.40;;;;;;5019826;28;20383;-81
2022/05/31 03:38:22;;;;;;;7.70;5.22;;;11.90;34.60;;;;;;5021888;28;20412;-82
2022/05/31 03:40:58;;;;;;;11.45;4.95;;;11.90;34.40;;;;;;5012835;28;20421;-78
2022/05/31 03:43:26;;;;;;;5.78;4.90;;;11.80;34.40;;;;;;5024284;28;20458;-79
2022/05/31 03:45:52;;;;;;;9.82;5.15;;;11.80;34.60;;;;;;5017241;28;20801;-80
2022/05/31 03:48:18;;;;;;;10.07;4.90;;;11.80;34.70;;;;;;5018684;28;20428;-82
2022/05/31 03:50:44;;;;;;;6.35;4.60;;;11.80;34.80;;;;;;5025446;28;20587;-82
2022/05/31 03:53:13;;;;;;;9.00;4.40;;;11.80;34.10;;;;;;5026364;28;20409;-79
2022/05/31 03:55:40;;;;;;;9.88;4.70;;;11.90;34.30;;;;;;5019267;28;20459;-78
2022/05/31 03:58:07;;;;;;;12.50;5.20;;;11.90;33.70;;;;;;5023517;28;20401;-77
2022/05/31 04:00:33;;;;;;;12.80;4.53;;;11.90;33.30;;;;;;5026965;28;20408;-77
2022/05/31 04:02:58;;;;;;;11.02;4.97;;;11.90;33.60;;;;;;5024920;28;20873;-77
2022/05/31 04:05:24;;;;;;;8.65;5.90;;;11.90;33.20;;;;;;5014086;28;20426;-78
2022/05/31 04:07:54;;;;;;;8.10;4.70;;;11.90;33.50;;;;;;5019797;28;20423;-79
2022/05/31 04:10:21;;;;;;;6.55;4.90;;;11.90;33.20;;;;;;5026322;28;20492;-79
2022/05/31 04:12:46;;;;;;;8.35;4.90;;;11.90;33.50;;;;;;5026549;28;20491;-77
2022/05/31 04:15:12;;;;;;;9.80;4.70;;;11.90;33.40;;;;;;5026786;28;20817;-79
2022/05/31 04:17:38;;;;;;;6.73;4.63;;;11.90;33.60;;;;;;5031815;28;20400;-77
2022/05/31 04:20:04;;;;;;;6.75;5.30;;;11.90;33.70;;;;;;5026315;28;20418;-81
2022/05/31 04:22:31;;;;;;;9.38;4.50;;;12.00;33.70;;;;;;5019426;28;20431;-76
2022/05/31 04:25:00;;;;;;;9.00;4.60;;;11.90;33.90;;;;;;5021771;28;20409;-80
2022/05/31 04:27:27;;;;;;;12.15;4.90;;;12.00;33.80;;;;;;5027140;28;20411;-79
2022/05/31 04:29:53;;;;;;;12.13;4.70;;;12.00;33.90;;;;;;5027971;28;20455;-75
2022/05/31 04:32:19;;;;;;;13.93;5.50;;;12.10;33.60;;;;;;5030265;28;20412;-79
2022/05/31 04:34:45;;;;;;;10.50;5.28;;;12.00;33.70;;;;;;5033464;28;20728;-80
2022/05/31 04:37:12;;;;;;;8.63;4.82;;;12.10;33.90;;;;;;5033594;28;20416;-79
2022/05/31 04:39:38;;;;;;;10.82;5.10;;;12.10;33.60;;;;;;5028591;28;20432;-80
2022/05/31 04:42:04;;;;;;;10.77;5.07;;;12.10;33.80;;;;;;5031670;28;20381;-79
2022/05/31 04:44:29;;;;;;;7.50;4.90;;;12.20;33.50;;;;;;5031903;28;20476;-79
2022/05/31 04:46:55;;;;;;;13.63;5.30;;;12.20;33.30;;;;;;5033541;28;20408;-82
2022/05/31 04:49:21;;;;;;;5.87;4.50;;;12.20;33.30;;;;;;5033024;28;20408;-80
2022/05/31 04:51:47;;;;;;;9.68;5.00;;;12.20;33.00;;;;;;5034452;28;20430;-79
2022/05/31 04:54:16;;;;;;;10.32;4.55;;;12.40;31.90;;;;;;5032574;28;20424;-78
2022/05/31 04:56:42;;;;;;;7.35;4.53;;;12.40;32.30;;;;;;5031368;28;20433;-78
2022/05/31 04:59:08;;;;;;;8.50;5.07;;;12.40;32.90;;;;;;5033317;28;20440;-80
2022/05/31 05:01:35;;;;;;;11.47;5.60;;;12.40;33.00;;;;;;5034720;28;20647;-79
2022/05/31 05:04:01;;;;;;;11.60;5.37;;;12.50;32.60;;;;;;5034503;28;20377;-79
2022/05/31 05:06:26;;;;;;;8.80;4.35;;;12.50;32.00;;;;;;5032665;28;20419;-80
2022/05/31 05:08:52;;;;;;;6.30;4.10;;;12.70;32.50;;;;;;5027201;28;20419;-79
2022/05/31 05:11:21;;;;;;;9.73;5.10;;;12.80;31.10;;;;;;5025124;28;20391;-80
2022/05/31 05:13:47;;;;;;;6.30;4.13;;;12.80;31.70;;;;;;5033241;28;20472;-80
2022/05/31 05:22:39;;;;;;;8.77;4.15;;;13.30;30.60;;;;;;1412121;26;20425;-81
2022/05/31 05:25:07;;;;;;;6.88;4.30;;;13.50;29.50;;;;;;5065200;28;20394;-86
2022/05/31 05:27:32;;;;;;;10.85;4.72;;;13.60;29.50;;;;;;5075801;28;20482;-86
2022/05/31 05:32:42;;;;;;;7.25;3.92;;;13.40;29.90;;;;;;5082667;28;20420;-82
2022/05/31 05:35:08;;;;;;;14.05;5.28;;;13.40;30.10;;;;;;5076056;22;20424;-73
2022/05/31 05:37:33;;;;;;;10.68;4.85;;;13.50;30.00;;;;;;5069664;28;20408;-73
2022/05/31 05:40:00;;;;;;;6.53;4.40;;;13.60;29.80;;;;;;5069265;28;20391;-72
2022/05/31 05:42:26;;;;;;;7.53;4.40;;;13.50;29.80;;;;;;5061845;28;20699;-71
2022/05/31 05:44:52;;;;;;;10.73;4.27;;;13.60;29.20;;;;;;5070477;28;20443;-72
2022/05/31 05:47:17;;;;;;;14.67;4.90;;;13.60;29.20;;;;;;5069404;28;20409;-71
2022/05/31 05:49:43;;;;;;;7.03;4.17;;;13.50;28.80;;;;;;5067252;28;20884;-71
2022/05/31 05:52:16;;;;;;;6.93;3.67;;;13.50;28.90;;;;;;5069690;28;20891;-71
2022/05/31 05:54:41;;;;;;;7.25;4.60;;;13.50;29.40;;;;;;5068645;28;20400;-72
2022/05/31 05:57:07;;;;;;;12.55;4.80;;;13.40;29.10;;;;;;5068728;28;20395;-72
2022/05/31 05:59:33;;;;;;;8.85;4.50;;;13.40;29.60;;;;;;5070362;28;20396;-72
2022/05/31 06:02:05;;;;;;;7.45;4.20;;;13.40;30.00;;;;;;5071012;28;20438;-71
2022/05/31 06:04:40;;;;;;;11.93;5.20;;;13.30;29.90;;;;;;5070045;28;20407;-71
2022/05/31 06:07:19;;;;;;;9.50;4.30;;;13.30;30.10;;;;;;5073620;28;20411;-72
2022/05/31 06:09:54;;;;;;;10.18;4.00;;;13.30;29.80;;;;;;5067577;28;20895;-74
2022/05/31 06:12:27;;;;;;;10.30;4.50;;;13.50;28.50;;;;;;5071576;28;20427;-73
2022/05/31 06:15:00;;;;;;;10.15;4.65;;;13.50;29.40;;;;;;5068816;28;20404;-72
2022/05/31 06:17:36;;;;;;;7.30;4.53;;;13.40;29.00;;;;;;5071064;28;20459;-72
2022/05/31 06:20:05;;;;;;;11.65;4.40;;;13.50;29.40;;;;;;5073299;28;20392;-74
2022/05/31 06:22:31;;;;;;;6.75;4.20;;;13.80;29.30;;;;;;5073690;28;20407;-73
2022/05/31 06:24:58;;;;;;;10.90;5.10;;;13.90;29.90;;;;;;5069858;28;20469;-72
2022/05/31 06:27:24;;;;;;;8.82;4.25;;;13.80;29.70;;;;;;5049142;28;20475;-72
2022/05/31 06:29:50;;;;;;;15.05;4.80;;;13.70;29.60;;;;;;5068962;28;20411;-73
2022/05/31 06:32:16;;;;;;;13.38;5.10;;;13.70;29.80;;;;;;5068933;28;20415;-72
2022/05/31 06:34:42;;;;;;;10.52;4.57;;;13.70;30.80;;;;;;5070546;28;20483;-72
2022/05/31 06:37:10;;;;;;;14.93;5.40;;;13.70;31.60;;;;;;5072831;28;20898;-72
2022/05/31 06:39:38;;;;;;;9.65;4.70;;;13.70;31.00;;;;;;5065782;28;20486;-72
2022/05/31 06:42:04;;;;;;;11.23;4.83;;;13.70;30.80;;;;;;5050355;28;20512;-72
2022/05/31 06:44:38;;;;;;;7.35;4.72;;;13.70;31.40;;;;;;5066114;28;20424;-73
2022/05/31 06:47:04;;;;;;;10.10;5.10;;;13.70;31.70;;;;;;5064675;28;20396;-74
2022/05/31 06:49:31;;;;;;;8.25;4.85;;;13.70;33.30;;;;;;5074847;28;20486;-73
2022/05/31 06:57:37;;;;;;;10.57;4.70;;;13.50;36.40;;;;;;5073709;28;20422;-73
2022/05/31 07:00:04;;;;;;;9.10;4.90;;;13.40;38.20;;;;;;5074481;28;20471;-73
2022/05/31 07:02:30;;;;;;;9.43;5.35;;;13.50;38.70;;;;;;5067129;28;20430;-73
2022/05/31 07:04:56;;;;;;;9.10;5.00;;;13.50;38.90;;;;;;5069633;28;20399;-73
2022/05/31 07:07:21;;;;;;;14.60;6.43;;;13.60;39.80;;;;;;5071479;28;20486;-73
2022/05/31 07:09:47;;;;;;;13.20;5.85;;;13.70;43.30;;;;;;5070647;28;20836;-73
2022/05/31 07:12:12;;;;;;;11.77;5.20;;;14.00;42.00;;;;;;5071778;28;20419;-73
2022/05/31 07:14:38;;;;;;;10.40;4.83;;;14.20;37.70;;;;;;5072666;28;20442;-73
2022/05/31 07:17:04;;;;;;;10.80;6.10;;;14.30;38.90;;;;;;5069374;28;20888;-73
2022/05/31 07:19:30;;;;;;;14.70;6.07;;;14.20;39.50;;;;;;5071927;28;20403;-71
2022/05/31 07:21:59;;;;;;;13.50;6.10;;;14.20;38.70;;;;;;5069738;28;20415;-72
2022/05/31 07:24:29;;;;;;;13.00;5.15;;;14.20;39.40;;;;;;5067516;28;20411;-77
2022/05/31 07:26:55;;;;;;;9.23;5.13;;;14.20;37.40;;;;;;5068531;28;20495;-72
2022/05/31 07:29:21;;;;;;;13.53;5.97;;;14.10;40.40;;;;;;5047545;28;20568;-74
2022/05/31 07:31:47;;;;;;;14.65;6.18;;;14.20;41.50;;;;;;5065513;28;20415;-73
2022/05/31 07:34:14;;;;;;;11.57;6.03;;;14.20;43.20;;;;;;5070501;28;20453;-73
2022/05/31 07:36:41;;;;;;;11.80;5.80;;;14.40;43.20;;;;;;5068371;28;20408;-74
2022/05/31 07:39:11;;;;;;;14.93;5.40;;;14.70;41.30;;;;;;5070040;28;20402;-75
2022/05/31 07:41:37;;;;;;;10.75;5.38;;;14.80;39.80;;;;;;5065464;28;20515;-73
2022/05/31 07:44:03;;;;;;;8.05;5.03;;;15.10;38.40;;;;;;5066149;28;20490;-74
2022/05/31 07:46:29;;;;;;;8.88;5.43;;;15.30;37.30;;;;;;5067954;28;20438;-73
2022/05/31 07:48:58;;;;;;;8.65;4.95;;;15.30;37.90;;;;;;5067010;28;20441;-73
2022/05/31 07:51:25;;;;;;;12.80;5.10;;;15.60;35.90;;;;;;5049123;28;20791;-74
2022/05/31 07:53:52;;;;;;;10.07;5.17;;;15.70;34.80;;;;;;5066506;28;20786;-75
2022/05/31 07:56:18;;;;;;;9.85;5.50;;;16.20;33.60;;;;;;5067896;28;20392;-73
2022/05/31 07:58:46;;;;;;;9.77;5.75;;;16.40;32.80;;;;;;5064330;28;20405;-75
2022/05/31 08:01:15;;;;;;;11.77;6.38;;;16.30;33.80;;;;;;5065390;28;20407;-74
2022/05/31 08:03:41;;;;;;;8.77;5.30;;;16.10;34.70;;;;;;5068203;28;20844;-74
2022/05/31 08:06:29;;;;;;;11.63;6.53;;;16.40;35.20;;;;;;5069353;28;20439;-74
2022/05/31 08:08:56;;;;;;;13.80;5.70;;;16.30;34.80;;;;;;5061647;28;20411;-75
2022/05/31 08:11:31;;;;;;;9.73;5.47;;;16.30;35.30;;;;;;5067838;28;20411;-75
2022/05/31 08:13:57;;;;;;;11.57;5.40;;;16.70;33.50;;;;;;5064548;28;20486;-74
2022/05/31 08:16:25;;;;;;;11.30;5.10;;;16.90;31.30;;;;;;5048206;28;20825;-74
2022/05/31 08:18:52;;;;;;;10.15;5.13;;;16.90;31.10;;;;;;5066382;28;20486;-75
2022/05/31 08:21:27;;;;;;;12.52;5.88;;;16.50;32.80;;;;;;5063720;28;20757;-75
2022/05/31 08:23:57;;;;;;;8.63;5.00;;;16.40;32.30;;;;;;5064918;28;20516;-74
2022/05/31 08:26:23;;;;;;;10.23;5.32;;;16.40;32.80;;;;;;5067479;28;20407;-75
2022/05/31 08:28:50;;;;;;;9.05;5.07;;;16.20;33.10;;;;;;5065439;28;20399;-73
2022/05/31 08:31:23;;;;;;;12.25;5.20;;;16.10;34.40;;;;;;5069907;28;20411;-75
2022/05/31 08:33:49;;;;;;;13.90;5.72;;;16.20;33.80;;;;;;5065157;28;20399;-74
2022/05/31 08:36:15;;;;;;;12.67;6.17;;;16.50;33.40;;;;;;5066157;28;20406;-73
2022/05/31 08:38:40;;;;;;;9.17;4.80;;;16.80;32.50;;;;;;5052755;28;20760;-73
2022/05/31 08:41:36;;;;;;;10.70;5.23;;;17.00;29.00;;;;;;5067626;28;20434;-73
2022/05/31 08:44:26;;;;;;;7.77;5.10;;;17.20;28.90;;;;;;5066719;28;20405;-78
2022/05/31 08:46:58;;;;;;;12.38;5.82;;;17.40;28.90;;;;;;5064668;28;20406;-76
2022/05/31 08:53:00;;;;;;;13.63;5.97;;;17.70;25.80;;;;;;5068053;28;20410;-75
2022/05/31 08:58:31;;;;;;;9.70;5.70;;;17.90;26.30;;;;;;5071300;28;20561;-75
2022/05/31 09:00:58;;;;;;;9.40;5.40;;;17.90;24.10;;;;;;5050487;28;20400;-73
2022/05/31 09:03:37;;;;;;;11.55;5.60;;;17.90;26.60;;;;;;5068873;28;20403;-74
2022/05/31 09:06:08;;;;;;;9.88;5.50;;;18.10;25.70;;;;;;5070369;28;20498;-74
2022/05/31 09:08:39;;;;;;;11.65;5.00;;;18.30;24.80;;;;;;5070905;28;20392;-74
2022/05/31 09:11:40;;;;;;;10.45;5.05;;;18.40;23.90;;;;;;5069951;28;20371;-73
2022/05/31 09:14:10;;;;;;;6.20;4.85;;;18.50;24.40;;;;;;5013920;28;20403;-74
2022/05/31 09:16:50;;;;;;;11.70;5.00;;;18.50;25.10;;;;;;5069730;28;20387;-74
2022/05/31 09:19:37;;;;;;;8.85;5.75;;;18.70;23.90;;;;;;5055139;28;20745;-74
2022/05/31 09:22:03;;;;;;;7.50;5.70;;;18.90;24.30;;;;;;5067882;28;20428;-73
2022/05/31 09:24:30;;;;;;;7.60;4.20;;;18.90;23.50;;;;;;5070635;28;20474;-73
2022/05/31 09:27:06;;;;;;;8.88;4.30;;;18.70;23.30;;;;;;5070980;28;20384;-73
2022/05/31 09:29:53;;;;;;;12.20;4.72;;;18.50;24.00;;;;;;5069627;28;20489;-74
2022/05/31 09:33:04;;;;;;;6.45;3.83;;;18.40;23.90;;;;;;5069348;28;20415;-74
2022/05/31 09:35:45;;;;;;;6.72;3.88;;;18.10;23.60;;;;;;5031516;28;20488;-76
2022/05/31 09:38:38;;;;;;;5.85;4.00;;;18.20;22.80;;;;;;5071422;28;20376;-75
2022/05/31 09:41:22;;;;;;;4.57;3.63;;;18.00;22.60;;;;;;5071491;28;20372;-75
2022/05/31 09:44:04;;;;;;;6.03;3.70;;;17.90;22.10;;;;;;5072015;28;20383;-74
2022/05/31 09:47:01;;;;;;;6.22;3.50;;;18.20;21.70;;;;;;5071752;28;20411;-75
2022/05/31 09:49:36;;;;;;;4.00;3.50;;;18.90;20.10;;;;;;5049937;28;20502;-73
2022/05/31 09:52:05;;;;;;;6.55;3.20;;;19.40;19.90;;;;;;5069903;28;20404;-73
2022/05/31 09:57:31;;;;;;;3.72;3.30;;;19.90;17.60;;;;;;4999452;28;20373;-74
2022/05/31 10:00:17;;;;;;;5.05;3.28;;;19.90;17.10;;;;;;5057551;28;20820;-75
2022/05/31 10:02:42;;;;;;;5.38;3.70;;;20.10;16.20;;;;;;5065173;28;20400;-75
2022/05/31 10:05:08;;;;;;;4.53;3.17;;;20.00;16.70;;;;;;5065682;28;20880;-76
2022/05/31 10:07:37;;;;;;;13.80;4.20;;;19.50;18.10;;;;;;5069606;28;20394;-74
2022/05/31 10:10:08;;;;;;;7.50;4.07;;;19.20;18.50;;;;;;5069076;28;20445;-76
2022/05/31 10:12:34;;;;;;;7.47;4.75;;;18.80;19.30;;;;;;5066688;28;20403;-76
2022/05/31 10:15:03;;;;;;;7.65;4.32;;;18.60;20.10;;;;;;5065350;28;20411;-76
2022/05/31 10:17:29;;;;;;;10.50;3.90;;;18.50;20.00;;;;;;5066020;28;20871;-76
2022/05/31 10:20:12;;;;;;;9.27;4.50;;;18.20;19.50;;;;;;5065179;28;20449;-75
2022/05/31 10:22:55;;;;;;;5.90;4.37;;;18.10;19.20;;;;;;5068907;28;20521;-78
2022/05/31 10:25:56;;;;;;;9.57;4.40;;;18.10;20.20;;;;;;5072201;28;20916;-79
2022/05/31 10:28:43;;;;;;;7.75;4.40;;;18.00;19.90;;;;;;5065010;28;20443;-79
2022/05/31 10:31:20;;;;;;;8.70;3.90;;;17.90;20.70;;;;;;5067282;28;20406;-79
2022/05/31 10:33:58;;;;;;;8.60;4.40;;;18.10;22.20;;;;;;5067614;28;20804;-77
2022/05/31 10:36:27;;;;;;;6.57;4.40;;;18.60;20.30;;;;;;5057251;28;20774;-77
2022/05/31 10:38:54;;;;;;;7.15;4.90;;;19.00;18.50;;;;;;5060568;28;20400;-79
2022/05/31 10:41:29;;;;;;;9.65;4.55;;;19.20;17.40;;;;;;5068392;28;20399;-77
2022/05/31 10:44:09;;;;;;;7.25;3.72;;;19.70;18.00;;;;;;5067065;28;20396;-77
2022/05/31 10:46:37;;;;;;;7.30;3.50;;;20.00;16.80;;;;;;5064067;28;20406;-78
2022/05/31 10:49:21;;;;;;;9.45;3.92;;;20.60;15.80;;;;;;5046830;28;20410;-77
2022/05/31 10:52:13;;;;;;;9.82;3.97;;;21.10;15.00;;;;;;5066466;28;20419;-77
2022/05/31 10:54:48;;;;;;;5.88;3.30;;;20.90;13.40;;;;;;5067975;28;20446;-77
2022/05/31 10:57:29;;;;;;;7.40;4.00;;;21.10;14.10;;;;;;5068864;28;20402;-77
2022/05/31 11:00:12;;;;;;;6.22;3.75;;;21.30;15.00;;;;;;5069713;28;20811;-76
2022/05/31 11:02:37;;;;;;;8.40;3.70;;;21.20;14.60;;;;;;5068308;28;20861;-74
2022/05/31 11:05:14;;;;;;;8.98;3.65;;;21.30;14.20;;;;;;5074869;28;20412;-76
2022/05/31 11:11:29;;;;;;;6.25;3.55;;;20.80;14.10;;;;;;5071781;28;20733;-74
2022/05/31 11:14:06;;;;;;;5.20;3.80;;;20.20;14.80;;;;;;4970187;28;20846;-77
2022/05/31 11:16:46;;;;;;;9.88;4.30;;;19.70;16.10;;;;;;4965047;28;20419;-77
2022/05/31 11:19:48;;;;;;;7.10;4.43;;;19.40;18.00;;;;;;5044474;28;20383;-76
2022/05/31 11:22:32;;;;;;;7.57;5.10;;;19.30;18.80;;;;;;5074010;28;20453;-78
2022/05/31 11:25:17;;;;;;;8.23;4.43;;;19.50;17.90;;;;;;5077733;28;20392;-79
2022/05/31 11:28:05;;;;;;;6.07;4.30;;;19.30;16.90;;;;;;5080919;28;20404;-77
2022/05/31 11:30:54;;;;;;;7.40;4.45;;;19.10;17.50;;;;;;5071483;28;20407;-81
2022/05/31 11:33:38;;;;;;;6.30;3.97;;;19.20;16.90;;;;;;5023759;28;20464;-79
2022/05/31 11:36:23;;;;;;;11.30;4.53;;;19.40;15.60;;;;;;5088147;22;20447;-77
2022/05/31 11:39:29;;;;;;;9.07;4.03;;;19.50;15.60;;;;;;5078738;28;20407;-77
2022/05/31 11:42:00;;;;;;;6.13;4.18;;;20.20;14.60;;;;;;5084222;28;20427;-77
2022/05/31 11:45:07;;;;;;;5.33;3.70;;;20.90;12.70;;;;;;5086516;28;20403;-76
2022/05/31 11:48:08;;;;;;;6.28;3.58;;;21.10;13.00;;;;;;5028797;28;20393;-77
2022/05/31 11:50:58;;;;;;;6.53;3.60;;;20.90;11.90;;;;;;5069723;28;20386;-77
2022/05/31 11:53:46;;;;;;;8.27;3.80;;;21.20;12.20;;;;;;5066078;28;20542;-77
2022/05/31 11:56:24;;;;;;;5.90;3.13;;;21.70;11.80;;;;;;5056860;28;20425;-77
2022/05/31 11:59:09;;;;;;;8.70;3.60;;;22.20;11.20;;;;;;5050639;28;20390;-77
2022/05/31 12:01:49;;;;;;;8.30;3.70;;;22.40;9.30;;;;;;5055282;28;20400;-78
2022/05/31 12:04:26;;;;;;;5.22;3.70;;;22.40;9.40;;;;;;5063276;28;20431;-78
2022/05/31 12:07:10;;;;;;;6.03;3.83;;;22.40;9.10;;;;;;5062541;28;20404;-79
2022/05/31 12:09:54;;;;;;;9.67;4.23;;;22.20;8.90;;;;;;5059385;28;20791;-77
2022/05/31 12:12:30;;;;;;;5.80;4.10;;;22.50;8.30;;;;;;5058978;28;20413;-77
2022/05/31 12:15:02;;;;;;;7.25;4.53;;;22.90;7.40;;;;;;5061877;28;20408;-77
2022/05/31 12:17:53;;;;;;;8.05;3.83;;;23.20;8.00;;;;;;5040331;28;20413;-78
2022/05/31 12:20:34;;;;;;;6.45;3.72;;;22.70;7.60;;;;;;5051415;28;20443;-77
2022/05/31 12:23:21;;;;;;;8.73;3.80;;;22.50;8.70;;;;;;5037591;28;20396;-78
2022/05/31 12:25:52;;;;;;;5.65;3.63;;;22.90;6.70;;;;;;5040192;28;20394;-78
2022/05/31 12:28:44;;;;;;;6.38;3.60;;;22.70;7.20;;;;;;5046344;28;20507;-77
2022/05/31 12:31:26;;;;;;;6.38;3.50;;;22.80;6.50;;;;;;5061196;28;20407;-77
2022/05/31 12:33:52;;;;;;;7.43;3.60;;;22.40;7.20;;;;;;5065131;28;20416;-78
2022/05/31 12:36:20;;;;;;;5.88;3.40;;;22.70;8.30;;;;;;5063193;28;20746;-77
2022/05/31 12:39:04;;;;;;;6.73;3.50;;;22.80;7.20;;;;;;5066474;28;20432;-77
2022/05/31 12:41:40;;;;;;;5.85;3.47;;;22.50;8.60;;;;;;5064351;28;20856;-77
2022/05/31 12:44:11;;;;;;;4.40;3.60;;;22.70;9.60;;;;;;5054165;28;20391;-78
2022/05/31 12:46:47;;;;;;;4.40;3.10;;;22.80;9.90;;;;;;5054697;28;20401;-77
2022/05/31 12:49:33;;;;;;;6.32;3.60;;;22.70;9.50;;;;;;5057673;28;20723;-77
2022/05/31 12:52:12;;;;;;;7.25;3.50;;;22.50;9.90;;;;;;5055217;28;20502;-77
2022/05/31 12:55:05;;;;;;;7.03;3.45;;;22.50;9.50;;;;;;5056025;28;20388;-77
2022/05/31 12:58:26;;;;;;;5.97;4.10;;;22.70;9.20;;;;;;5053006;28;20739;-79
2022/05/31 13:00:35;;;;;;;8.18;3.42;;;22.90;7.80;;;;;;5053934;28;20444;-75
2022/05/31 13:03:05;;;;;;;4.75;3.00;;;23.40;8.50;;;;;;5060199;28;20397;-76
2022/05/31 13:06:05;;;;;;;7.32;2.70;;;23.90;6.20;;;;;;5057794;28;20447;-76
2022/05/31 13:08:48;;;;;;;2.60;2.40;;;24.10;6.20;;;;;;5054693;28;20383;-78
2022/05/31 13:20:31;;;;;;;4.80;2.30;;;23.10;1.00;;;;;;5047884;28;20454;-76
2022/05/31 13:23:06;;;;;;;4.35;2.63;;;22.90;2.40;;;;;;5034986;28;20379;-76
2022/05/31 13:25:45;;;;;;;4.15;2.40;;;22.90;2.60;;;;;;5037990;28;20443;-77
2022/05/31 13:28:30;;;;;;;4.15;2.33;;;23.00;2.30;;;;;;5019521;28;20454;-75
2022/05/31 13:31:03;;;;;;;4.13;2.35;;;23.00;1.00;;;;;;5023690;28;20411;-74
2022/05/31 13:33:31;;;;;;;5.03;2.30;;;22.90;1.00;;;;;;5051748;28;20909;-75
2022/05/31 13:36:04;;;;;;;6.43;2.40;;;23.20;1.70;;;;;;5046854;28;20540;-73
2022/05/31 13:38:35;;;;;;;6.90;2.30;;;23.00;1.70;;;;;;5044646;28;20411;-75
2022/05/31 13:41:02;;;;;;;4.90;2.70;;;22.60;1.80;;;;;;5032172;28;20496;-74
2022/05/31 13:43:51;;;;;;;3.03;2.67;;;22.40;1.70;;;;;;5035074;28;20397;-74
2022/05/31 13:46:29;;;;;;;5.50;2.58;;;22.50;1.70;;;;;;5052581;28;20386;-75